createdAt,value
2022-08-04T00:12:35.429Z,17.84
2022-08-04T00:15:59.351Z,18.36
2022-08-04T00:31:57.781Z,17.37
2022-08-04T00:36:00.108Z,18.24
2022-08-04T01:12:44.271Z,17.37
2022-08-04T01:15:57.108Z,17.20
2022-08-04T01:26:58.820Z,18.15
2022-08-04T01:40:28.758Z,18.11
2022-08-04T01:43:58.012Z,16.70
2022-08-04T01:50:48.043Z,17.97
2022-08-04T01:54:11.824Z,16.51
2022-08-04T01:57:37.648Z,16.55
2022-08-04T02:00:34.792Z,17.91
2022-08-04T02:04:21.937Z,17.27
2022-08-04T02:14:26.612Z,16.40
2022-08-04T02:20:41.391Z,16.59
2022-08-04T02:23:17.635Z,16.40
2022-08-04T02:29:39.207Z,16.54
2022-08-04T02:32:56.261Z,16.31
2022-08-04T02:35:48.448Z,18.01
2022-08-04T02:38:39.273Z,16.40
2022-08-04T02:41:53.991Z,17.08
2022-08-04T02:51:13.984Z,16.03
2022-08-04T03:00:54.015Z,16.79
2022-08-04T03:04:13.371Z,16.02
2022-08-04T03:07:29.198Z,16.94
2022-08-04T03:10:47.578Z,16.55
2022-08-04T03:14:02.012Z,15.88
2022-08-04T03:17:15.342Z,15.49
2022-08-04T03:20:25.367Z,17.61
2022-08-04T03:23:33.035Z,15.58
2022-08-04T03:26:52.977Z,17.59
2022-08-04T03:30:31.727Z,17.16
2022-08-04T03:37:25.336Z,16.75
2022-08-04T03:45:17.370Z,17.45
2022-08-04T03:52:55.130Z,16.41
2022-08-04T03:56:01.191Z,15.74
2022-08-04T03:59:06.011Z,17.36
2022-08-04T04:02:25.771Z,17.37
2022-08-04T04:05:29.920Z,16.38
2022-08-04T04:08:31.002Z,15.57
2022-08-04T04:11:31.817Z,16.45
2022-08-04T04:14:44.898Z,15.58
2022-08-04T04:17:49.702Z,16.07
2022-08-04T04:21:13.918Z,16.06
2022-08-04T04:24:36.397Z,16.75
2022-08-04T04:27:25.461Z,15.79
2022-08-04T04:30:20.584Z,17.45
2022-08-04T04:33:53.125Z,16.89
2022-08-04T04:36:44.444Z,16.93
2022-08-04T04:43:09.802Z,17.18
2022-08-04T04:46:15.388Z,16.30
2022-08-04T04:49:02.513Z,17.85
2022-08-04T04:51:40.894Z,18.02
2022-08-04T04:57:54.034Z,18.95
2022-08-04T05:01:36.036Z,17.99
2022-08-04T05:09:31.581Z,20.57
2022-08-04T06:00:56.726Z,29.55
2022-08-04T06:03:27.057Z,30.10
2022-08-04T06:05:57.691Z,30.03
2022-08-04T06:08:26.040Z,30.46
2022-08-04T06:10:57.349Z,31.77
2022-08-04T06:13:47.602Z,31.80
2022-08-04T06:16:28.746Z,33.01
2022-08-04T06:20:00.069Z,33.28
2022-08-04T06:21:52.246Z,33.16
2022-08-04T06:24:25.569Z,33.21
2022-08-04T06:26:56.876Z,32.90
2022-08-04T06:29:33.678Z,32.69
2022-08-04T06:32:27.916Z,32.94
2022-08-04T06:35:03.080Z,33.03
2022-08-04T06:37:43.013Z,33.67
2022-08-04T06:40:30.584Z,34.29
2022-08-04T06:43:02.412Z,33.95
2022-08-04T06:45:53.940Z,33.79
2022-08-04T07:01:41.925Z,40.74
2022-08-04T07:04:11.377Z,40.94
2022-08-04T07:06:39.453Z,41.45
2022-08-04T07:09:07.411Z,41.95
2022-08-04T07:11:39.783Z,42.28
2022-08-04T07:14:12.256Z,42.15
2022-08-04T07:16:42.908Z,42.16
2022-08-04T07:19:13.767Z,42.60
2022-08-04T07:22:18.211Z,42.80
2022-08-04T07:24:32.506Z,42.64
2022-08-04T07:27:00.955Z,42.59
2022-08-04T07:29:29.172Z,42.57
2022-08-04T07:32:00.838Z,42.85
2022-08-04T07:34:31.744Z,43.58
2022-08-04T07:37:02.156Z,43.89
2022-08-04T07:39:33.760Z,44.23
2022-08-04T07:42:19.665Z,44.28
2022-08-04T07:44:47.932Z,44.01
2022-08-04T07:47:17.936Z,44.19
2022-08-04T07:49:55.806Z,45.29
2022-08-04T07:52:26.753Z,46.47
2022-08-04T07:54:55.428Z,47.02
2022-08-04T07:57:41.110Z,47.02
2022-08-04T08:00:11.944Z,46.62
2022-08-04T08:02:42.045Z,47.09
2022-08-04T08:05:12.001Z,47.18
2022-08-04T08:07:50.719Z,46.65
2022-08-04T08:10:23.075Z,46.29
2022-08-04T08:12:52.421Z,46.42
2022-08-04T08:15:21.595Z,46.46
2022-08-04T08:17:57.989Z,46.79
2022-08-04T08:20:29.720Z,48.01
2022-08-04T08:22:58.351Z,48.94
2022-08-04T08:25:26.302Z,49.90
2022-08-04T08:27:56.171Z,50.89
2022-08-04T08:30:25.062Z,51.84
2022-08-04T08:33:02.462Z,52.63
2022-08-04T08:35:53.086Z,53.33
2022-08-04T08:38:35.382Z,54.18
2022-08-04T08:41:22.769Z,54.48
2022-08-04T08:44:07.644Z,55.00
2022-08-04T08:46:59.146Z,55.74
2022-08-04T08:50:00.308Z,56.45
2022-08-04T08:52:56.605Z,56.47
2022-08-04T08:55:34.980Z,55.97
2022-08-04T08:58:24.360Z,55.89
2022-08-04T09:00:57.980Z,56.23
2022-08-04T09:03:47.259Z,56.95
2022-08-04T09:06:49.326Z,57.46
2022-08-04T09:10:00.495Z,57.67
2022-08-04T09:12:34.543Z,58.22
2022-08-04T09:15:12.766Z,58.66
2022-08-04T09:17:46.588Z,58.99
2022-08-04T09:20:22.453Z,59.12
2022-08-04T09:22:57.529Z,59.26
2022-08-04T09:25:31.594Z,59.32
2022-08-04T09:28:09.363Z,59.70
2022-08-04T09:30:44.241Z,59.84
2022-08-04T09:33:44.490Z,60.03
2022-08-04T09:36:25.781Z,60.42
2022-08-04T09:39:07.318Z,60.64
2022-08-04T09:41:48.390Z,60.65
2022-08-04T09:44:51.183Z,60.76
2022-08-04T09:47:20.118Z,60.93
2022-08-04T09:49:55.152Z,60.83
2022-08-04T09:52:33.594Z,60.91
2022-08-04T09:55:10.203Z,61.04
2022-08-04T09:57:49.692Z,61.06
2022-08-04T10:00:20.640Z,61.21
2022-08-04T10:03:14.746Z,61.33
2022-08-04T10:05:59.043Z,61.22
2022-08-04T10:08:45.033Z,61.30
2022-08-04T10:11:22.445Z,61.21
2022-08-04T10:13:58.374Z,61.34
2022-08-04T10:16:39.078Z,60.96
2022-08-04T10:19:16.516Z,61.13
2022-08-04T10:22:27.057Z,61.56
2022-08-04T10:25:02.349Z,61.44
2022-08-04T10:27:34.996Z,60.58
2022-08-04T10:30:11.767Z,59.35
2022-08-04T10:32:46.967Z,59.54
2022-08-04T10:35:16.894Z,60.44
2022-08-04T10:38:00.134Z,60.55
2022-08-04T10:40:40.690Z,60.81
2022-08-04T10:43:23.380Z,61.24
2022-08-04T10:45:58.012Z,60.98
2022-08-04T10:48:38.774Z,59.92
2022-08-04T10:51:16.807Z,58.69
2022-08-04T10:53:46.336Z,56.98
2022-08-04T10:56:19.063Z,53.95
2022-08-04T10:58:55.897Z,51.73
2022-08-04T11:02:01.007Z,52.64
2022-08-04T11:04:27.440Z,54.83
2022-08-04T11:06:56.647Z,56.11
2022-08-04T11:09:25.005Z,55.72
2022-08-04T11:12:02.084Z,56.50
2022-08-04T11:14:38.913Z,57.04
2022-08-04T11:17:11.969Z,55.80
2022-08-04T11:19:49.989Z,56.98
2022-08-04T11:22:27.115Z,57.32
2022-08-04T11:25:02.619Z,58.26
2022-08-04T11:27:40.002Z,58.47
2022-08-04T11:30:13.486Z,57.95
2022-08-04T11:32:46.735Z,56.80
2022-08-04T11:35:23.461Z,54.53
2022-08-04T11:38:02.320Z,51.65
2022-08-04T11:41:02.149Z,49.59
2022-08-04T11:43:56.481Z,47.53
2022-08-04T11:46:36.913Z,45.59
2022-08-04T11:49:09.260Z,45.17
2022-08-04T11:51:37.468Z,44.37
2022-08-04T11:54:06.319Z,44.35
2022-08-04T11:56:36.709Z,43.92
2022-08-04T11:59:08.041Z,43.52
2022-08-04T12:01:52.199Z,43.13
2022-08-04T12:04:29.512Z,42.62
2022-08-04T12:07:31.818Z,41.80
2022-08-04T12:10:12.753Z,42.13
2022-08-04T12:12:47.864Z,41.77
2022-08-04T12:15:23.551Z,40.80
2022-08-04T12:18:05.455Z,41.11
2022-08-04T12:20:42.053Z,40.74
2022-08-04T12:23:18.589Z,40.33
2022-08-04T12:25:55.623Z,39.68
2022-08-04T12:28:41.613Z,39.54
2022-08-04T12:31:21.456Z,39.13
2022-08-04T12:34:05.069Z,38.82
2022-08-04T12:36:41.185Z,38.14
2022-08-04T12:39:12.879Z,38.08
2022-08-04T12:41:46.570Z,37.52
2022-08-04T12:44:37.020Z,36.81
2022-08-04T12:47:36.128Z,36.63
2022-08-04T12:50:01.818Z,37.05
2022-08-04T12:55:28.702Z,36.83
2022-08-04T12:57:58.011Z,36.65
2022-08-04T13:00:31.986Z,36.62
2022-08-04T13:03:10.157Z,36.50
2022-08-04T13:05:42.054Z,36.43
2022-08-04T13:08:12.460Z,36.38
2022-08-04T13:10:41.848Z,36.38
2022-08-04T13:13:16.845Z,36.41
2022-08-04T13:15:56.453Z,36.43
2022-08-04T13:18:30.181Z,36.24
2022-08-04T13:21:21.252Z,36.56
2022-08-04T13:24:09.335Z,36.79
2022-08-04T13:26:55.176Z,36.94
2022-08-04T13:29:58.804Z,37.01
2022-08-04T13:32:18.353Z,36.96
2022-08-04T13:34:49.535Z,36.91
2022-08-04T13:37:24.569Z,36.94
2022-08-04T13:39:55.401Z,36.92
2022-08-04T13:42:26.135Z,36.89
2022-08-04T13:44:57.062Z,36.86
2022-08-04T13:47:29.488Z,36.83
2022-08-04T13:50:14.676Z,36.90
2022-08-04T13:52:44.978Z,36.92
2022-08-04T13:55:21.385Z,36.97
2022-08-04T13:57:53.843Z,37.10
2022-08-04T14:00:29.746Z,37.16
2022-08-04T14:03:03.663Z,37.05
2022-08-04T14:06:07.964Z,36.74
2022-08-04T14:08:44.727Z,36.55
2022-08-04T14:12:06.738Z,36.55
2022-08-04T14:14:02.403Z,36.46
2022-08-04T14:16:30.364Z,35.73
2022-08-04T14:19:00.820Z,36.25
2022-08-04T14:21:29.257Z,36.06
2022-08-04T14:23:58.914Z,35.95
2022-08-04T14:26:33.403Z,35.64
2022-08-04T14:29:26.697Z,35.63
2022-08-04T14:32:12.607Z,35.58
2022-08-04T14:34:44.916Z,35.57
2022-08-04T14:37:19.398Z,35.54
2022-08-04T14:40:18.681Z,34.94
2022-08-04T14:42:44.377Z,35.43
2022-08-04T14:45:29.460Z,35.20
2022-08-04T14:47:57.832Z,35.47
2022-08-04T14:50:35.985Z,35.50
2022-08-04T14:53:05.616Z,34.94
2022-08-04T14:55:35.327Z,35.50
2022-08-04T14:58:36.700Z,35.62
2022-08-04T15:00:53.508Z,35.02
2022-08-04T15:03:22.319Z,35.10
2022-08-04T15:06:01.007Z,35.38
2022-08-04T15:08:34.205Z,35.35
2022-08-04T15:11:03.756Z,35.37
2022-08-04T15:13:33.172Z,34.97
2022-08-04T15:16:06.941Z,34.36
2022-08-04T15:18:36.970Z,34.98
2022-08-04T15:21:06.540Z,34.88
2022-08-04T15:23:39.757Z,34.77
2022-08-04T15:26:14.001Z,34.44
2022-08-04T15:28:48.432Z,34.61
2022-08-04T15:32:07.043Z,34.50
2022-08-04T15:34:08.563Z,34.81
2022-08-04T15:36:43.275Z,34.78
2022-08-04T15:39:23.335Z,34.77
2022-08-04T15:41:59.409Z,34.67
2022-08-04T15:44:50.187Z,33.39
2022-08-04T15:47:18.543Z,34.47
2022-08-04T15:50:03.354Z,34.28
2022-08-04T15:53:01.455Z,34.40
2022-08-04T15:55:39.351Z,33.54
2022-08-04T15:58:11.860Z,33.59
2022-08-04T16:01:33.384Z,34.08
2022-08-04T16:04:01.950Z,32.61
2022-08-04T16:06:44.731Z,33.00
2022-08-04T16:09:46.367Z,32.21
2022-08-04T16:16:04.739Z,33.51
2022-08-04T16:18:57.701Z,32.53
2022-08-04T16:21:28.079Z,33.41
2022-08-04T16:24:26.366Z,31.88
2022-08-04T16:27:09.442Z,31.74
2022-08-04T16:29:42.474Z,31.70
2022-08-04T16:32:42.566Z,33.02
2022-08-04T16:36:07.804Z,31.57
2022-08-04T16:39:08.378Z,32.61
2022-08-04T16:42:48.894Z,32.45
2022-08-04T16:45:55.287Z,31.42
2022-08-04T16:48:29.042Z,31.71
2022-08-04T16:51:04.750Z,31.72
2022-08-04T16:54:02.623Z,31.10
2022-08-04T16:56:34.236Z,30.47
2022-08-04T16:59:10.228Z,30.32
2022-08-04T17:01:38.955Z,30.49
2022-08-04T17:04:08.370Z,30.33
2022-08-04T17:06:38.176Z,30.44
2022-08-04T17:09:07.940Z,30.34
2022-08-04T17:11:36.043Z,30.46
2022-08-04T17:14:06.150Z,30.46
2022-08-04T17:16:36.509Z,30.44
2022-08-04T17:19:05.371Z,30.24
2022-08-04T17:21:37.630Z,30.36
2022-08-04T17:24:14.752Z,30.26
2022-08-04T17:26:54.045Z,30.04
2022-08-04T17:29:43.578Z,30.03
2022-08-04T17:32:18.544Z,29.92
2022-08-04T17:34:50.623Z,29.63
2022-08-04T17:37:52.636Z,29.73
2022-08-04T17:40:13.959Z,29.67
2022-08-04T17:42:45.098Z,29.64
2022-08-04T17:45:51.368Z,29.62
2022-08-04T17:48:09.304Z,29.59
2022-08-04T17:50:43.408Z,29.56
2022-08-04T17:53:13.551Z,29.50
2022-08-04T17:55:46.793Z,29.43
2022-08-04T17:58:21.447Z,29.36
2022-08-04T18:03:52.877Z,29.11
2022-08-04T18:06:21.833Z,29.10
2022-08-04T18:08:58.067Z,28.88
2022-08-04T18:11:29.802Z,28.99
2022-08-04T18:14:10.909Z,28.92
2022-08-04T18:16:44.430Z,28.82
2022-08-04T18:19:13.405Z,28.76
2022-08-04T18:21:46.387Z,28.70
2022-08-04T18:24:35.170Z,28.60
2022-08-04T18:27:20.080Z,28.47
2022-08-04T18:30:15.180Z,28.38
2022-08-04T18:32:35.847Z,28.15
2022-08-04T18:35:07.470Z,28.17
2022-08-04T18:38:05.007Z,27.78
2022-08-04T18:40:37.808Z,27.99
2022-08-04T18:43:14.063Z,27.88
2022-08-04T18:45:51.312Z,27.80
2022-08-04T18:48:19.299Z,27.75
2022-08-04T18:51:09.804Z,27.68
2022-08-04T18:53:58.533Z,27.61
2022-08-04T18:56:29.300Z,27.52
2022-08-04T18:59:00.234Z,27.43
2022-08-04T19:01:30.238Z,27.38
2022-08-04T19:04:33.837Z,27.29
2022-08-04T19:07:23.321Z,27.14
2022-08-04T19:12:41.923Z,27.06
2022-08-04T19:15:11.453Z,27.01
2022-08-04T19:17:57.155Z,26.96
2022-08-04T19:20:29.723Z,26.88
2022-08-04T19:24:29.051Z,26.79
2022-08-04T19:26:03.750Z,26.59
2022-08-04T19:28:37.050Z,26.64
2022-08-04T19:31:07.501Z,26.51
2022-08-04T19:33:58.815Z,26.48
2022-08-04T19:36:28.416Z,26.39
2022-08-04T19:53:37.296Z,24.64
2022-08-04T19:57:25.101Z,24.13
2022-08-04T20:19:15.993Z,24.33
2022-08-04T21:02:48.128Z,23.98
